createdAt,value
2023-04-30T00:02:01.098Z,22.67
2023-04-30T00:04:02.571Z,21.90
2023-04-30T00:06:04.105Z,20.95
2023-04-30T00:08:05.666Z,21.90
2023-04-30T00:10:07.463Z,22.27
2023-04-30T00:12:08.870Z,21.90
2023-04-30T00:14:10.544Z,20.98
2023-04-30T00:16:12.043Z,20.05
2023-04-30T00:18:13.489Z,20.33
2023-04-30T00:20:15.720Z,21.17
2023-04-30T00:22:17.115Z,21.48
2023-04-30T00:24:18.611Z,20.70
2023-04-30T00:26:20.060Z,21.05
2023-04-30T00:28:21.623Z,20.73
2023-04-30T00:30:23.143Z,22.35
2023-04-30T00:32:24.779Z,21.55
2023-04-30T00:34:26.408Z,22.13
2023-04-30T00:36:27.832Z,23.67
2023-04-30T00:38:29.226Z,23.38
2023-04-30T00:40:30.665Z,21.77
2023-04-30T00:42:32.084Z,21.90
2023-04-30T00:44:33.548Z,20.85
2023-04-30T00:46:35.009Z,21.08
2023-04-30T00:48:36.876Z,21.13
2023-04-30T00:50:38.400Z,22.05
2023-04-30T00:52:39.983Z,22.10
2023-04-30T00:54:41.756Z,24.52
2023-04-30T00:56:43.184Z,23.33
2023-04-30T00:58:45.428Z,26.00
2023-04-30T01:00:47.330Z,27.55
2023-04-30T01:02:49.650Z,25.13
2023-04-30T01:04:52.018Z,25.13
2023-04-30T01:06:53.454Z,27.38
2023-04-30T01:08:54.888Z,26.98
2023-04-30T01:11:05.148Z,23.50
2023-04-30T01:13:08.385Z,21.65
2023-04-30T01:15:30.050Z,23.70
2023-04-30T01:17:51.763Z,23.45
2023-04-30T01:19:53.662Z,23.35
2023-04-30T01:21:57.603Z,24.40
2023-04-30T01:24:18.047Z,23.98
2023-04-30T01:26:34.913Z,24.73
2023-04-30T01:28:36.824Z,24.45
2023-04-30T01:30:40.871Z,26.63
2023-04-30T01:32:42.569Z,25.05
2023-04-30T01:34:44.086Z,23.15
2023-04-30T01:37:01.048Z,22.98
2023-04-30T01:39:14.472Z,23.33
2023-04-30T01:41:23.783Z,18.70
2023-04-30T01:43:25.169Z,18.20
2023-04-30T01:45:42.351Z,19.65
2023-04-30T01:47:50.156Z,20.23
2023-04-30T01:49:58.059Z,22.30
2023-04-30T01:52:17.926Z,21.02
2023-04-30T01:56:29.799Z,14.90
2023-04-30T01:58:32.020Z,19.95
2023-04-30T02:00:33.739Z,20.10
2023-04-30T02:02:35.241Z,18.52
2023-04-30T02:04:36.826Z,18.42
2023-04-30T02:06:38.351Z,21.90
2023-04-30T02:08:40.141Z,22.40
2023-04-30T02:10:41.757Z,18.17
2023-04-30T02:12:43.150Z,18.88
2023-04-30T02:14:44.523Z,17.80
2023-04-30T02:16:45.974Z,14.80
2023-04-30T02:18:47.565Z,13.52
2023-04-30T02:20:48.974Z,12.70
2023-04-30T02:22:51.104Z,11.88
2023-04-30T02:24:55.998Z,11.55
2023-04-30T02:26:57.402Z,12.27
2023-04-30T02:28:58.924Z,10.35
2023-04-30T02:31:00.879Z,11.32
2023-04-30T02:33:03.511Z,9.35
2023-04-30T02:35:05.246Z,8.02
2023-04-30T02:37:07.072Z,7.93
2023-04-30T02:39:09.122Z,8.52
2023-04-30T02:41:10.680Z,9.05
2023-04-30T02:43:12.136Z,11.65
2023-04-30T02:45:13.583Z,13.50
2023-04-30T02:47:15.156Z,14.10
2023-04-30T02:49:16.829Z,15.88
2023-04-30T02:51:18.247Z,9.98
2023-04-30T02:53:19.637Z,13.00
2023-04-30T02:55:21.223Z,11.63
2023-04-30T02:57:22.672Z,10.60
2023-04-30T02:59:24.097Z,14.30
2023-04-30T03:01:25.672Z,12.02
2023-04-30T03:03:27.208Z,16.48
2023-04-30T03:05:28.722Z,15.48
2023-04-30T03:07:30.288Z,17.10
2023-04-30T03:09:32.350Z,15.95
2023-04-30T03:11:37.469Z,16.02
2023-04-30T03:13:38.958Z,15.65
2023-04-30T03:15:40.404Z,17.13
2023-04-30T03:17:43.801Z,17.05
2023-04-30T03:19:46.799Z,17.40
2023-04-30T03:21:48.287Z,17.35
2023-04-30T03:23:49.762Z,17.95
2023-04-30T03:25:51.535Z,17.73
2023-04-30T03:27:52.996Z,19.88
2023-04-30T03:29:54.732Z,17.90
2023-04-30T03:31:56.674Z,16.33
2023-04-30T03:33:58.172Z,16.73
2023-04-30T03:35:59.635Z,19.48
2023-04-30T03:38:01.438Z,16.13
2023-04-30T03:40:03.629Z,21.05
2023-04-30T03:42:05.010Z,16.52
2023-04-30T03:44:07.004Z,10.57
2023-04-30T03:46:08.661Z,21.35
2023-04-30T03:48:10.206Z,20.02
2023-04-30T03:50:11.697Z,20.13
2023-04-30T03:52:13.134Z,17.75
2023-04-30T03:54:14.632Z,17.25
2023-04-30T03:56:16.178Z,22.83
2023-04-30T03:58:17.644Z,11.63
2023-04-30T04:00:19.123Z,17.58
2023-04-30T04:02:21.558Z,15.07
2023-04-30T04:04:23.154Z,20.80
2023-04-30T04:06:24.756Z,19.23
2023-04-30T04:08:26.254Z,13.13
2023-04-30T04:10:27.695Z,19.92
2023-04-30T04:12:29.086Z,21.92
2023-04-30T04:14:30.629Z,26.08
2023-04-30T04:16:32.182Z,27.42
2023-04-30T04:18:33.774Z,24.77
2023-04-30T04:20:35.154Z,26.67
2023-04-30T04:22:36.568Z,28.45
2023-04-30T04:24:38.431Z,30.38
2023-04-30T04:26:39.930Z,32.88
2023-04-30T04:28:41.457Z,33.97
2023-04-30T04:30:43.352Z,34.08
2023-04-30T04:32:49.556Z,34.00
2023-04-30T04:34:50.995Z,33.75
2023-04-30T04:36:53.028Z,28.10
2023-04-30T04:38:54.727Z,31.80
2023-04-30T04:40:56.640Z,26.25
2023-04-30T04:42:58.260Z,28.40
2023-04-30T04:44:59.887Z,30.67
2023-04-30T04:47:03.450Z,20.42
2023-04-30T04:49:05.025Z,24.40
2023-04-30T04:51:06.585Z,23.23
2023-04-30T04:53:08.006Z,25.42
2023-04-30T04:55:09.721Z,24.30
2023-04-30T04:57:11.321Z,22.60
2023-04-30T04:59:12.944Z,17.65
2023-04-30T05:01:14.630Z,22.50
2023-04-30T05:03:16.414Z,20.15
2023-04-30T05:05:17.876Z,19.10
2023-04-30T05:07:19.563Z,20.35
2023-04-30T05:09:20.999Z,22.73
2023-04-30T05:11:22.874Z,21.33
2023-04-30T05:13:24.313Z,20.10
2023-04-30T05:15:25.963Z,21.63
2023-04-30T05:17:27.444Z,22.25
2023-04-30T05:19:28.900Z,21.67
2023-04-30T05:21:32.084Z,19.70
2023-04-30T05:23:33.509Z,17.67
2023-04-30T05:25:35.718Z,17.60
2023-04-30T05:27:37.214Z,15.95
2023-04-30T05:29:38.741Z,14.48
2023-04-30T05:31:40.284Z,12.95
2023-04-30T05:33:41.733Z,14.32
2023-04-30T05:35:43.155Z,15.93
2023-04-30T05:37:44.828Z,12.77
2023-04-30T05:39:46.668Z,13.90
2023-04-30T05:41:48.963Z,13.80
2023-04-30T05:43:50.521Z,13.45
2023-04-30T05:45:52.195Z,11.23
2023-04-30T05:47:53.744Z,12.15
2023-04-30T05:49:55.771Z,11.52
2023-04-30T05:51:57.571Z,11.93
2023-04-30T05:53:58.999Z,11.93
2023-04-30T05:56:00.866Z,11.23
2023-04-30T05:58:02.295Z,12.02
2023-04-30T06:00:06.772Z,11.57
2023-04-30T06:02:08.390Z,11.18
2023-04-30T06:04:09.887Z,11.50
2023-04-30T06:06:11.428Z,11.73
2023-04-30T06:08:13.006Z,10.85
2023-04-30T06:10:14.388Z,10.32
2023-04-30T06:12:15.784Z,18.08
2023-04-30T06:14:17.729Z,11.73
2023-04-30T06:16:19.611Z,34.30
2023-04-30T06:18:21.206Z,12.95
2023-04-30T06:20:22.682Z,13.30
2023-04-30T06:22:24.172Z,11.88
2023-04-30T06:24:27.661Z,8.20
2023-04-30T06:26:29.585Z,10.05
2023-04-30T06:28:31.150Z,9.73
2023-04-30T06:30:32.663Z,9.73
2023-04-30T06:32:34.173Z,7.57
2023-04-30T06:34:36.469Z,9.15
2023-04-30T06:36:44.239Z,8.82
2023-04-30T06:38:49.040Z,10.40
2023-04-30T06:40:50.465Z,8.98
2023-04-30T06:42:51.863Z,9.43
2023-04-30T06:44:53.739Z,6.85
2023-04-30T06:46:55.241Z,6.68
2023-04-30T06:49:01.071Z,6.18
2023-04-30T06:51:02.511Z,6.55
2023-04-30T06:53:04.135Z,8.38
2023-04-30T06:55:05.758Z,7.00
2023-04-30T06:57:07.271Z,7.72
2023-04-30T06:59:08.864Z,6.35
2023-04-30T07:01:10.335Z,6.82
2023-04-30T07:03:11.931Z,7.70
2023-04-30T07:05:13.563Z,8.10
2023-04-30T07:07:15.473Z,7.80
2023-04-30T07:09:17.118Z,6.82
2023-04-30T07:11:18.680Z,8.27
2023-04-30T07:13:20.089Z,6.55
2023-04-30T07:15:21.704Z,6.28
2023-04-30T07:17:23.797Z,6.25
2023-04-30T07:19:33.199Z,5.20
2023-04-30T07:21:37.640Z,7.30
2023-04-30T07:23:39.116Z,7.00
2023-04-30T07:25:41.014Z,6.50
2023-04-30T07:27:42.478Z,5.10
2023-04-30T07:29:43.914Z,5.45
2023-04-30T07:31:46.095Z,5.45
2023-04-30T07:33:48.861Z,4.45
2023-04-30T07:35:51.490Z,5.45
2023-04-30T07:37:52.894Z,5.32
2023-04-30T07:39:54.531Z,5.47
2023-04-30T07:41:56.617Z,4.57
2023-04-30T07:43:58.026Z,3.55
2023-04-30T07:45:59.753Z,4.45
2023-04-30T07:48:01.505Z,4.25
2023-04-30T07:50:03.489Z,4.50
2023-04-30T07:52:06.151Z,3.58
2023-04-30T07:54:07.594Z,4.15
2023-04-30T07:56:09.135Z,4.20
2023-04-30T07:58:10.557Z,5.60
2023-04-30T08:00:13.539Z,4.75
2023-04-30T08:02:15.415Z,5.47
2023-04-30T08:04:16.965Z,4.38
2023-04-30T08:06:18.611Z,4.25
2023-04-30T08:08:20.111Z,4.80
2023-04-30T08:10:21.713Z,2.78
2023-04-30T08:12:23.472Z,4.65
2023-04-30T08:14:24.908Z,5.20
2023-04-30T08:16:26.428Z,6.63
2023-04-30T08:18:27.886Z,4.25
2023-04-30T08:20:29.344Z,5.28
2023-04-30T08:22:30.832Z,4.43
2023-04-30T08:24:32.214Z,4.32
2023-04-30T08:26:33.634Z,3.40
2023-04-30T08:28:35.415Z,3.78
2023-04-30T08:30:36.855Z,4.80
2023-04-30T08:32:38.667Z,3.90
2023-04-30T08:34:43.710Z,3.80
2023-04-30T08:36:45.188Z,4.38
2023-04-30T08:38:46.689Z,4.43
2023-04-30T08:40:52.594Z,4.43
2023-04-30T08:42:59.930Z,3.97
2023-04-30T08:45:01.725Z,3.67
2023-04-30T08:47:03.757Z,3.70
2023-04-30T08:49:05.265Z,4.53
2023-04-30T08:51:06.877Z,3.50
2023-04-30T08:53:09.224Z,3.80
2023-04-30T08:55:11.340Z,3.55
2023-04-30T08:57:12.825Z,3.17
2023-04-30T08:59:14.271Z,3.92
2023-04-30T09:01:16.610Z,4.03
2023-04-30T09:03:18.206Z,4.43
2023-04-30T09:05:19.803Z,3.42
2023-04-30T09:07:25.408Z,3.47
2023-04-30T09:09:33.392Z,3.40
2023-04-30T09:11:34.877Z,3.53
2023-04-30T09:13:42.638Z,3.67
2023-04-30T09:15:45.921Z,3.20
2023-04-30T09:17:48.627Z,3.70
2023-04-30T09:19:50.545Z,3.80
2023-04-30T09:21:52.018Z,4.13
2023-04-30T09:23:57.353Z,4.93
2023-04-30T09:25:58.757Z,4.30
2023-04-30T09:28:13.284Z,3.40
2023-04-30T09:30:31.810Z,3.40
2023-04-30T09:32:33.372Z,3.30
2023-04-30T09:34:35.844Z,3.72
2023-04-30T09:36:37.449Z,3.90
2023-04-30T09:38:39.463Z,1.65
2023-04-30T09:40:42.025Z,2.00
2023-04-30T09:42:58.022Z,3.88
2023-04-30T09:44:59.466Z,3.00
2023-04-30T09:47:01.149Z,3.60
2023-04-30T09:49:03.856Z,3.50
2023-04-30T09:51:05.395Z,3.90
2023-04-30T09:53:08.833Z,3.25
2023-04-30T09:55:10.362Z,3.60
2023-04-30T09:57:13.443Z,3.10
2023-04-30T09:59:16.475Z,3.10
2023-04-30T10:01:18.236Z,3.55
2023-04-30T10:03:21.194Z,2.50
2023-04-30T10:05:22.818Z,3.35
2023-04-30T10:07:24.996Z,3.35
2023-04-30T10:09:30.856Z,3.55
2023-04-30T10:11:33.071Z,2.38
2023-04-30T10:14:03.837Z,2.80
2023-04-30T10:16:08.087Z,2.30
2023-04-30T10:18:13.424Z,3.03
2023-04-30T10:20:15.574Z,2.53
2023-04-30T10:22:17.334Z,2.60
2023-04-30T10:24:19.723Z,2.55
2023-04-30T10:26:22.495Z,3.20
2023-04-30T10:28:24.093Z,2.92
2023-04-30T10:30:26.030Z,2.75
2023-04-30T10:32:32.836Z,2.85
2023-04-30T10:34:49.401Z,4.05
2023-04-30T10:36:54.908Z,2.13
2023-04-30T10:38:56.902Z,2.40
2023-04-30T10:41:02.238Z,2.33
2023-04-30T10:43:03.688Z,2.58
2023-04-30T10:45:06.049Z,2.42
2023-04-30T10:47:08.220Z,2.25
2023-04-30T10:49:11.831Z,2.35
2023-04-30T10:51:14.207Z,2.05
2023-04-30T10:53:17.863Z,4.68
2023-04-30T10:55:19.323Z,3.03
2023-04-30T10:57:21.119Z,2.45
2023-04-30T10:59:22.818Z,2.63
2023-04-30T11:01:24.409Z,2.88
2023-04-30T11:03:26.194Z,2.55
2023-04-30T11:05:40.036Z,3.15
2023-04-30T11:07:51.329Z,4.72
2023-04-30T11:09:57.189Z,4.03
2023-04-30T11:12:09.710Z,2.70
2023-04-30T11:14:20.276Z,3.13
2023-04-30T11:16:26.871Z,2.40
2023-04-30T11:18:28.510Z,4.50
2023-04-30T11:20:29.977Z,2.67
2023-04-30T11:22:36.087Z,2.47
2023-04-30T11:24:53.574Z,1.92
2023-04-30T11:27:10.444Z,3.15
2023-04-30T11:29:12.302Z,3.13
2023-04-30T11:31:15.343Z,2.65
2023-04-30T11:33:17.876Z,3.25
2023-04-30T11:35:19.821Z,2.75
2023-04-30T11:37:31.722Z,2.38
2023-04-30T11:39:35.730Z,2.05
2023-04-30T11:41:43.782Z,2.30
2023-04-30T11:43:45.561Z,2.40
2023-04-30T11:45:58.438Z,2.58
2023-04-30T11:48:00.411Z,2.40
2023-04-30T11:50:01.860Z,2.40
2023-04-30T11:52:03.658Z,2.55
2023-04-30T11:54:08.224Z,2.58
2023-04-30T11:56:09.676Z,2.40
2023-04-30T11:58:11.561Z,3.17
2023-04-30T12:00:17.364Z,2.30
2023-04-30T12:02:19.188Z,1.88
2023-04-30T12:04:21.924Z,2.90
2023-04-30T12:06:27.621Z,3.63
2023-04-30T12:08:29.359Z,2.10
2023-04-30T12:10:31.692Z,1.48
2023-04-30T12:12:33.092Z,1.45
2023-04-30T12:14:36.704Z,1.70
2023-04-30T12:16:45.582Z,1.95
2023-04-30T12:18:47.473Z,2.45
2023-04-30T12:20:48.972Z,13.13
2023-04-30T12:22:50.673Z,2.90
2023-04-30T12:24:52.110Z,7.18
2023-04-30T12:26:53.690Z,3.70
2023-04-30T12:28:55.995Z,2.90
2023-04-30T12:30:57.446Z,3.50
2023-04-30T12:33:00.132Z,2.25
2023-04-30T12:35:01.931Z,3.47
2023-04-30T12:37:03.508Z,3.95
2023-04-30T12:39:09.166Z,3.60
2023-04-30T12:41:15.370Z,4.30
2023-04-30T12:43:17.827Z,1.77
2023-04-30T12:45:37.878Z,2.33
2023-04-30T12:47:42.510Z,2.20
2023-04-30T12:49:45.452Z,5.88
2023-04-30T12:51:47.068Z,3.17
2023-04-30T12:53:48.538Z,3.35
2023-04-30T12:56:10.017Z,4.13
2023-04-30T12:58:13.579Z,2.45
2023-04-30T13:00:15.145Z,3.90
2023-04-30T13:02:16.620Z,1.90
2023-04-30T13:04:18.378Z,2.90
2023-04-30T13:06:21.220Z,2.38
2023-04-30T13:08:22.789Z,2.30
2023-04-30T13:10:25.247Z,1.90
2023-04-30T13:12:26.689Z,3.63
2023-04-30T13:14:28.295Z,4.03
2023-04-30T13:16:30.966Z,17.88
2023-04-30T13:18:33.083Z,1.60
2023-04-30T13:20:35.054Z,1.50
2023-04-30T13:22:37.850Z,1.65
2023-04-30T13:24:39.242Z,1.80
2023-04-30T13:26:41.112Z,2.58
2023-04-30T13:28:42.575Z,3.55
2023-04-30T13:30:44.037Z,2.47
2023-04-30T13:32:46.554Z,2.17
2023-04-30T13:34:48.375Z,2.95
2023-04-30T13:36:49.851Z,3.10
2023-04-30T13:38:51.603Z,2.72
2023-04-30T13:40:53.109Z,2.10
2023-04-30T13:42:54.593Z,3.45
2023-04-30T13:44:56.150Z,2.15
2023-04-30T13:46:57.740Z,3.72
2023-04-30T13:48:59.742Z,5.15
2023-04-30T13:51:01.274Z,6.45
2023-04-30T13:53:03.375Z,2.08
2023-04-30T13:55:05.744Z,1.80
2023-04-30T13:57:07.559Z,1.27
2023-04-30T13:59:09.662Z,1.90
2023-04-30T14:01:11.175Z,2.78
2023-04-30T14:03:13.120Z,2.72
2023-04-30T14:05:15.710Z,2.20
2023-04-30T14:07:17.335Z,4.15
2023-04-30T14:09:18.756Z,1.63
2023-04-30T14:11:21.879Z,27.40
2023-04-30T14:13:23.388Z,5.93
2023-04-30T14:15:24.999Z,3.15
2023-04-30T14:17:27.724Z,1.60
2023-04-30T14:19:29.414Z,4.38
2023-04-30T14:21:30.874Z,5.70
2023-04-30T14:23:32.377Z,2.00
2023-04-30T14:25:33.935Z,3.03
2023-04-30T14:27:35.719Z,1.90
2023-04-30T14:29:37.322Z,3.03
2023-04-30T14:31:38.850Z,3.85
2023-04-30T14:33:40.290Z,3.55
2023-04-30T14:35:41.793Z,5.07
2023-04-30T14:37:43.229Z,1.80
2023-04-30T14:39:45.279Z,2.85
2023-04-30T14:41:46.716Z,1.75
2023-04-30T14:43:48.128Z,2.75
2023-04-30T14:45:50.006Z,2.03
2023-04-30T14:47:51.465Z,2.45
2023-04-30T14:49:54.148Z,3.20
2023-04-30T14:51:56.021Z,3.78
2023-04-30T14:53:57.465Z,1.65
2023-04-30T14:55:58.992Z,1.65
2023-04-30T14:58:00.979Z,2.40
2023-04-30T15:00:02.749Z,1.88
2023-04-30T15:02:04.368Z,1.10
2023-04-30T15:04:06.189Z,1.98
2023-04-30T15:06:07.775Z,1.50
2023-04-30T15:08:09.293Z,2.00
2023-04-30T15:10:11.118Z,2.58
2023-04-30T15:12:12.714Z,1.88
2023-04-30T15:14:14.197Z,2.05
2023-04-30T15:16:17.054Z,1.60
2023-04-30T15:18:18.676Z,1.40
2023-04-30T15:20:20.377Z,3.70
2023-04-30T15:22:22.669Z,1.90
2023-04-30T15:24:24.120Z,2.13
2023-04-30T15:26:26.001Z,2.03
2023-04-30T15:28:27.509Z,1.95
2023-04-30T15:30:29.183Z,2.20
2023-04-30T15:32:30.712Z,3.25
2023-04-30T15:34:32.183Z,2.88
2023-04-30T15:36:33.645Z,1.52
2023-04-30T15:38:35.201Z,2.30
2023-04-30T15:40:37.109Z,2.47
2023-04-30T15:42:39.469Z,2.95
2023-04-30T15:44:40.885Z,2.92
2023-04-30T15:46:42.411Z,2.40
2023-04-30T15:48:43.831Z,2.50
2023-04-30T15:50:45.393Z,1.90
2023-04-30T15:52:46.955Z,1.90
2023-04-30T15:54:48.371Z,1.95
2023-04-30T15:56:51.483Z,5.38
2023-04-30T15:58:53.946Z,4.07
2023-04-30T16:00:55.674Z,4.90
2023-04-30T16:02:57.292Z,3.53
2023-04-30T16:04:59.110Z,1.80
2023-04-30T16:07:01.265Z,2.35
2023-04-30T16:09:07.876Z,2.13
2023-04-30T16:11:10.813Z,4.65
2023-04-30T16:13:12.260Z,1.98
2023-04-30T16:15:13.788Z,3.10
2023-04-30T16:17:15.345Z,2.70
2023-04-30T16:19:17.294Z,1.77
2023-04-30T16:21:19.483Z,3.08
2023-04-30T16:23:21.020Z,2.95
2023-04-30T16:25:22.766Z,4.35
2023-04-30T16:27:24.298Z,2.72
2023-04-30T16:29:26.050Z,3.90
2023-04-30T16:31:28.274Z,6.25
2023-04-30T16:33:29.759Z,7.47
2023-04-30T16:35:31.353Z,3.97
2023-04-30T16:37:32.964Z,3.42
2023-04-30T16:39:34.459Z,5.25
2023-04-30T16:41:36.053Z,2.22
2023-04-30T16:43:37.469Z,1.10
2023-04-30T16:45:39.023Z,5.63
2023-04-30T16:47:40.769Z,5.07
2023-04-30T16:49:42.204Z,3.30
2023-04-30T16:51:46.452Z,2.67
2023-04-30T16:53:48.148Z,13.07
2023-04-30T16:55:51.261Z,12.95
2023-04-30T16:57:53.886Z,7.32
2023-04-30T16:59:55.561Z,12.18
2023-04-30T17:01:58.650Z,5.38
2023-04-30T17:04:00.171Z,9.98
2023-04-30T17:06:01.742Z,11.48
2023-04-30T17:08:03.286Z,3.80
2023-04-30T17:10:05.378Z,3.60
2023-04-30T17:12:07.883Z,4.20
2023-04-30T17:14:09.538Z,4.03
2023-04-30T17:16:10.973Z,5.28
2023-04-30T17:18:13.147Z,6.15
2023-04-30T17:20:14.761Z,4.60
2023-04-30T17:22:19.675Z,3.17
2023-04-30T17:24:24.360Z,4.38
2023-04-30T17:26:25.832Z,5.53
2023-04-30T17:28:27.607Z,6.38
2023-04-30T17:30:29.121Z,6.20
2023-04-30T17:32:30.563Z,5.28
2023-04-30T17:34:32.246Z,6.68
2023-04-30T17:36:34.263Z,5.07
2023-04-30T17:38:35.895Z,7.13
2023-04-30T17:40:37.338Z,6.72
2023-04-30T17:42:39.112Z,6.35
2023-04-30T17:44:40.910Z,15.13
2023-04-30T17:46:42.473Z,9.63
2023-04-30T17:48:43.930Z,6.05
2023-04-30T17:50:45.454Z,13.35
2023-04-30T17:52:46.861Z,19.48
2023-04-30T17:54:48.288Z,17.95
2023-04-30T17:56:49.894Z,19.35
2023-04-30T17:58:51.425Z,15.20
2023-04-30T18:00:54.405Z,7.90
2023-04-30T18:02:55.829Z,7.72
2023-04-30T18:04:57.309Z,6.43
2023-04-30T18:06:58.809Z,5.72
2023-04-30T18:09:01.472Z,5.22
2023-04-30T18:11:03.508Z,11.30
2023-04-30T18:13:05.010Z,10.52
2023-04-30T18:15:08.479Z,4.45
2023-04-30T18:17:09.943Z,11.20
2023-04-30T18:19:11.362Z,7.25
2023-04-30T18:21:13.627Z,4.97
2023-04-30T18:23:15.311Z,13.35
2023-04-30T18:25:17.464Z,7.70
2023-04-30T18:27:19.301Z,5.78
2023-04-30T18:29:20.814Z,5.38
2023-04-30T18:31:22.330Z,5.75
2023-04-30T18:33:23.794Z,7.40
2023-04-30T18:35:25.198Z,4.03
2023-04-30T18:37:27.876Z,5.05
2023-04-30T18:39:30.946Z,7.03
2023-04-30T18:41:32.361Z,9.32
2023-04-30T18:43:33.855Z,13.23
2023-04-30T18:45:35.276Z,26.48
2023-04-30T18:47:36.895Z,17.95
2023-04-30T18:49:38.875Z,80.57
2023-04-30T18:51:40.332Z,9.27
2023-04-30T18:53:45.106Z,16.85
2023-04-30T18:55:46.642Z,41.53
2023-04-30T18:57:50.294Z,12.02
2023-04-30T18:59:52.017Z,20.42
2023-04-30T19:01:54.734Z,11.65
2023-04-30T19:03:56.231Z,29.10
2023-04-30T19:05:57.934Z,19.85
2023-04-30T19:07:59.522Z,13.65
2023-04-30T19:10:02.199Z,13.20
2023-04-30T19:12:03.830Z,13.85
2023-04-30T19:14:06.303Z,10.10
2023-04-30T19:16:07.746Z,8.63
2023-04-30T19:18:12.826Z,8.18
2023-04-30T19:20:14.303Z,7.78
2023-04-30T19:22:15.735Z,7.65
2023-04-30T19:24:17.167Z,8.52
2023-04-30T19:26:18.591Z,9.05
2023-04-30T19:28:20.044Z,8.65
2023-04-30T19:30:21.445Z,10.40
2023-04-30T19:32:23.136Z,11.23
2023-04-30T19:34:26.361Z,8.35
2023-04-30T19:36:28.345Z,14.50
2023-04-30T19:38:29.761Z,11.10
2023-04-30T19:40:31.228Z,12.93
2023-04-30T19:42:32.670Z,12.90
2023-04-30T19:44:34.296Z,12.40
2023-04-30T19:46:35.834Z,11.55
2023-04-30T19:48:37.343Z,11.40
2023-04-30T19:50:40.764Z,12.27
2023-04-30T19:52:42.223Z,13.25
2023-04-30T19:54:48.592Z,11.23
2023-04-30T19:56:52.861Z,11.77
2023-04-30T19:58:54.578Z,11.77
2023-04-30T20:00:55.987Z,11.20
2023-04-30T20:02:58.209Z,10.80
2023-04-30T20:04:59.801Z,10.75
2023-04-30T20:07:01.319Z,10.43
2023-04-30T20:09:02.953Z,13.45
2023-04-30T20:11:04.559Z,14.95
2023-04-30T20:13:06.407Z,14.63
2023-04-30T20:15:08.261Z,12.25
2023-04-30T20:17:09.823Z,12.43
2023-04-30T20:19:13.069Z,14.68
2023-04-30T20:21:14.985Z,16.65
2023-04-30T20:23:16.889Z,20.30
2023-04-30T20:25:18.758Z,23.90
2023-04-30T20:27:20.693Z,20.17
2023-04-30T20:29:23.157Z,24.75
2023-04-30T20:31:24.951Z,33.50
2023-04-30T20:33:27.230Z,24.88
2023-04-30T20:35:29.209Z,20.52
2023-04-30T20:37:32.185Z,22.27
2023-04-30T20:39:33.600Z,23.48
2023-04-30T20:41:36.074Z,24.50
2023-04-30T20:43:37.532Z,34.70
2023-04-30T20:45:40.744Z,31.95
2023-04-30T20:47:42.261Z,31.08
2023-04-30T20:49:43.927Z,29.02
2023-04-30T20:51:45.398Z,27.02
2023-04-30T20:53:46.795Z,25.23
2023-04-30T20:55:48.388Z,22.85
2023-04-30T20:57:50.330Z,21.73
2023-04-30T20:59:51.839Z,20.67
2023-04-30T21:01:53.280Z,19.23
2023-04-30T21:03:55.816Z,19.92
2023-04-30T21:05:57.254Z,21.63
2023-04-30T21:08:01.274Z,20.75
2023-04-30T21:10:05.197Z,30.90
2023-04-30T21:12:06.613Z,36.75
2023-04-30T21:14:09.349Z,32.35
2023-04-30T21:16:10.763Z,196.80
2023-04-30T21:18:12.346Z,99.20
2023-04-30T21:20:13.926Z,35.15
2023-04-30T21:22:15.623Z,28.50
2023-04-30T21:24:17.298Z,26.60
2023-04-30T21:26:19.006Z,44.53
2023-04-30T21:28:20.481Z,43.95
2023-04-30T21:30:24.993Z,41.38
2023-04-30T21:32:27.267Z,38.58
2023-04-30T21:34:32.126Z,39.90
2023-04-30T21:36:35.292Z,44.92
2023-04-30T21:38:37.922Z,44.17
2023-04-30T21:40:39.415Z,40.72
2023-04-30T21:42:40.862Z,39.75
2023-04-30T21:44:42.295Z,41.05
2023-04-30T21:46:43.782Z,41.22
2023-04-30T21:48:47.143Z,38.20
2023-04-30T21:50:49.799Z,41.17
2023-04-30T21:52:51.316Z,40.63
2023-04-30T21:54:52.739Z,41.08
2023-04-30T21:56:54.268Z,42.90
2023-04-30T21:58:55.743Z,43.15
2023-04-30T22:00:57.128Z,37.88
2023-04-30T22:02:59.012Z,32.10
2023-04-30T22:05:00.958Z,29.38
2023-04-30T22:07:02.430Z,27.65
2023-04-30T22:09:04.610Z,30.95
2023-04-30T22:11:06.215Z,88.28
2023-04-30T22:13:07.697Z,60.65
2023-04-30T22:15:09.566Z,50.25
2023-04-30T22:17:11.644Z,113.57
2023-04-30T22:19:13.043Z,67.70
2023-04-30T22:21:14.645Z,38.95
2023-04-30T22:23:16.685Z,37.90
2023-04-30T22:25:18.813Z,27.58
2023-04-30T22:27:20.229Z,22.77
2023-04-30T22:29:21.652Z,23.48
2023-04-30T22:31:23.106Z,28.85
2023-04-30T22:33:25.262Z,30.30
2023-04-30T22:35:27.630Z,28.75
2023-04-30T22:37:29.996Z,24.23
2023-04-30T22:39:31.409Z,23.98
2023-04-30T22:41:34.659Z,22.67
2023-04-30T22:43:36.124Z,18.42
2023-04-30T22:45:40.344Z,17.52
2023-04-30T22:47:42.263Z,18.25
2023-04-30T22:49:44.144Z,32.05
2023-04-30T22:51:45.625Z,74.70
2023-04-30T22:53:47.048Z,54.83
2023-04-30T22:55:48.545Z,37.40
2023-04-30T22:57:49.954Z,24.70
2023-04-30T22:59:51.542Z,21.40
2023-04-30T23:01:53.360Z,21.02
2023-04-30T23:03:54.839Z,21.13
2023-04-30T23:05:58.600Z,19.48
2023-04-30T23:08:00.012Z,18.70
2023-04-30T23:10:01.875Z,18.88
2023-04-30T23:12:04.913Z,22.65
2023-04-30T23:14:06.694Z,44.65
2023-04-30T23:16:10.537Z,36.22
2023-04-30T23:18:12.348Z,35.55
2023-04-30T23:20:13.726Z,22.50
2023-04-30T23:22:15.237Z,17.58
2023-04-30T23:24:16.684Z,15.95
2023-04-30T23:26:18.298Z,14.85
2023-04-30T23:28:19.831Z,15.63
2023-04-30T23:30:21.858Z,15.02
2023-04-30T23:32:23.433Z,14.88
2023-04-30T23:34:24.950Z,16.38
2023-04-30T23:36:26.391Z,15.88
2023-04-30T23:38:27.807Z,16.35
2023-04-30T23:40:29.532Z,17.48
2023-04-30T23:42:30.966Z,17.73
2023-04-30T23:44:32.721Z,16.85
2023-04-30T23:46:34.296Z,16.27
2023-04-30T23:48:36.019Z,16.40
2023-04-30T23:50:40.128Z,18.10
2023-04-30T23:52:41.551Z,17.00
2023-04-30T23:54:43.252Z,16.30
2023-04-30T23:56:45.572Z,15.80
2023-04-30T23:58:46.994Z,17.17
